createdAt,value
2022-11-30T00:00:41.430Z,36.23
2022-11-30T00:03:08.698Z,34.83
2022-11-30T00:05:36.227Z,36.40
2022-11-30T00:08:03.402Z,37.83
2022-11-30T00:10:30.142Z,39.10
2022-11-30T00:12:56.962Z,37.57
2022-11-30T00:15:23.692Z,40.07
2022-11-30T00:17:50.431Z,42.37
2022-11-30T00:20:17.164Z,40.53
2022-11-30T00:22:43.969Z,38.80
2022-11-30T00:25:10.891Z,33.13
2022-11-30T00:27:37.722Z,36.87
2022-11-30T00:30:06.212Z,32.43
2022-11-30T00:32:34.258Z,34.00
2022-11-30T00:35:01.871Z,32.93
2022-11-30T00:37:28.570Z,33.50
2022-11-30T00:39:55.273Z,35.80
2022-11-30T00:42:22.096Z,36.93
2022-11-30T00:44:49.143Z,37.10
2022-11-30T00:47:16.055Z,38.33
2022-11-30T00:49:42.728Z,39.07
2022-11-30T00:52:09.352Z,31.07
2022-11-30T00:54:35.990Z,34.53
2022-11-30T00:57:02.592Z,36.43
2022-11-30T00:59:29.494Z,30.33
2022-11-30T01:01:56.141Z,32.43
2022-11-30T01:04:23.532Z,34.73
2022-11-30T01:06:50.320Z,37.80
2022-11-30T01:09:17.749Z,31.03
2022-11-30T01:11:44.417Z,32.70
2022-11-30T01:14:11.298Z,36.60
2022-11-30T01:16:38.063Z,34.13
2022-11-30T01:19:04.865Z,31.40
2022-11-30T01:21:32.048Z,33.60
2022-11-30T01:23:58.792Z,39.40
2022-11-30T01:26:25.705Z,34.47
2022-11-30T01:28:54.411Z,37.17
2022-11-30T01:31:23.742Z,36.53
2022-11-30T01:33:52.872Z,36.23
2022-11-30T01:36:22.733Z,34.80
2022-11-30T01:38:52.452Z,33.63
2022-11-30T01:41:25.900Z,36.23
2022-11-30T01:43:55.994Z,41.70
2022-11-30T01:46:46.051Z,41.30
2022-11-30T01:49:41.959Z,39.23
2022-11-30T01:52:20.337Z,37.97
2022-11-30T01:54:56.531Z,43.40
2022-11-30T01:57:32.117Z,41.60
2022-11-30T02:00:01.843Z,36.93
2022-11-30T02:02:44.934Z,40.90
2022-11-30T02:05:13.238Z,42.20
2022-11-30T02:07:41.731Z,45.67
2022-11-30T02:10:17.976Z,42.97
2022-11-30T02:13:11.093Z,45.10
2022-11-30T02:16:04.442Z,42.40
2022-11-30T02:18:37.922Z,44.13
2022-11-30T02:21:12.431Z,43.97
2022-11-30T02:23:48.272Z,44.13
2022-11-30T02:26:31.054Z,43.43
2022-11-30T02:29:04.006Z,40.10
2022-11-30T02:31:41.633Z,43.37
2022-11-30T02:34:12.708Z,39.10
2022-11-30T02:36:40.278Z,41.73
2022-11-30T02:39:07.512Z,42.17
2022-11-30T02:41:39.403Z,41.07
2022-11-30T02:44:09.294Z,38.13
2022-11-30T02:46:55.035Z,34.40
2022-11-30T02:49:39.471Z,42.60
2022-11-30T02:52:08.596Z,40.70
2022-11-30T02:54:35.629Z,34.17
2022-11-30T02:57:02.698Z,38.10
2022-11-30T02:59:29.985Z,37.57
2022-11-30T03:01:57.504Z,41.73
2022-11-30T03:04:24.446Z,37.17
2022-11-30T03:06:51.127Z,39.77
2022-11-30T03:09:17.968Z,35.30
2022-11-30T03:11:45.073Z,37.03
2022-11-30T03:14:11.952Z,35.50
2022-11-30T03:16:39.856Z,33.70
2022-11-30T03:19:06.956Z,30.47
2022-11-30T03:21:33.649Z,34.63
2022-11-30T03:24:00.314Z,33.00
2022-11-30T03:26:27.113Z,35.03
2022-11-30T03:28:54.073Z,35.60
2022-11-30T03:31:21.071Z,32.50
2022-11-30T03:33:47.895Z,39.07
2022-11-30T03:36:14.979Z,36.57
2022-11-30T03:38:41.746Z,33.90
2022-11-30T03:41:11.878Z,32.73
2022-11-30T03:43:38.786Z,34.97
2022-11-30T03:46:06.641Z,35.63
2022-11-30T03:48:36.330Z,34.67
2022-11-30T03:51:04.718Z,40.80
2022-11-30T03:53:32.145Z,36.20
2022-11-30T03:56:02.036Z,33.47
2022-11-30T03:58:29.492Z,37.07
2022-11-30T04:01:06.449Z,42.37
2022-11-30T04:03:34.409Z,40.10
2022-11-30T04:06:02.347Z,39.53
2022-11-30T04:08:29.558Z,41.33
2022-11-30T04:10:58.403Z,43.77
2022-11-30T04:13:26.586Z,45.47
2022-11-30T04:15:54.588Z,34.90
2022-11-30T04:18:23.233Z,32.97
2022-11-30T04:20:52.395Z,35.57
2022-11-30T04:23:20.124Z,31.17
2022-11-30T04:25:48.093Z,30.00
2022-11-30T04:28:17.035Z,34.07
2022-11-30T04:30:44.408Z,38.13
2022-11-30T04:33:13.780Z,33.27
2022-11-30T04:35:47.150Z,38.53
2022-11-30T04:38:14.093Z,34.77
2022-11-30T04:40:42.013Z,38.90
2022-11-30T04:43:09.674Z,39.57
2022-11-30T04:45:36.736Z,37.33
2022-11-30T04:48:04.616Z,34.07
2022-11-30T04:50:32.430Z,33.43
2022-11-30T04:52:59.324Z,34.70
2022-11-30T04:55:26.278Z,33.20
2022-11-30T04:57:53.132Z,36.47
2022-11-30T05:00:20.885Z,34.10
2022-11-30T05:02:52.810Z,30.47
2022-11-30T05:05:20.465Z,32.50
2022-11-30T05:07:54.721Z,31.87
2022-11-30T05:10:21.496Z,34.87
2022-11-30T05:12:48.380Z,34.97
2022-11-30T05:15:14.930Z,34.83
2022-11-30T05:17:41.765Z,35.27
2022-11-30T05:20:08.836Z,33.53
2022-11-30T05:22:35.557Z,36.50
2022-11-30T05:25:02.729Z,36.43
2022-11-30T05:27:29.781Z,35.93
2022-11-30T05:29:56.478Z,37.17
2022-11-30T05:32:23.350Z,30.03
2022-11-30T05:34:51.834Z,36.03
2022-11-30T05:37:19.901Z,34.03
2022-11-30T05:39:46.708Z,30.63
2022-11-30T05:42:13.609Z,31.53
2022-11-30T05:44:40.487Z,29.17
2022-11-30T05:47:07.431Z,31.03
2022-11-30T05:49:34.288Z,31.03
2022-11-30T05:52:01.152Z,37.17
2022-11-30T05:54:28.050Z,32.07
2022-11-30T05:56:55.440Z,34.47
2022-11-30T05:59:23.044Z,29.17
2022-11-30T06:01:52.633Z,31.10
2022-11-30T06:04:19.812Z,29.87
2022-11-30T06:06:46.903Z,31.30
2022-11-30T06:09:13.548Z,34.30
2022-11-30T06:11:40.455Z,32.30
2022-11-30T06:14:07.672Z,37.27
2022-11-30T06:16:34.509Z,32.73
2022-11-30T06:19:01.442Z,36.37
2022-11-30T06:21:28.179Z,41.90
2022-11-30T06:23:55.028Z,42.17
2022-11-30T06:26:22.067Z,38.00
2022-11-30T06:28:49.184Z,37.60
2022-11-30T06:31:16.649Z,39.57
2022-11-30T06:33:43.532Z,35.53
2022-11-30T06:36:10.613Z,35.60
2022-11-30T06:38:37.749Z,37.17
2022-11-30T06:41:09.779Z,36.50
2022-11-30T06:43:38.144Z,37.97
2022-11-30T06:46:06.474Z,38.83
2022-11-30T06:48:33.698Z,38.10
2022-11-30T06:51:00.682Z,41.63
2022-11-30T06:53:27.941Z,41.90
2022-11-30T06:55:54.519Z,38.33
2022-11-30T06:58:21.290Z,36.90
2022-11-30T07:00:47.961Z,38.03
2022-11-30T07:03:14.755Z,38.73
2022-11-30T07:05:44.076Z,43.13
2022-11-30T07:08:12.490Z,41.57
2022-11-30T07:10:40.915Z,44.00
2022-11-30T07:13:11.045Z,41.63
2022-11-30T07:15:38.484Z,39.43
2022-11-30T07:18:05.678Z,43.43
2022-11-30T07:20:32.395Z,49.30
2022-11-30T07:23:19.075Z,48.57
2022-11-30T07:26:04.488Z,48.90
2022-11-30T07:28:31.159Z,52.13
2022-11-30T07:30:57.981Z,47.40
2022-11-30T07:33:24.720Z,48.63
2022-11-30T07:35:54.459Z,50.43
2022-11-30T07:38:21.340Z,49.13
2022-11-30T07:40:48.091Z,53.43
2022-11-30T07:43:15.764Z,43.17
2022-11-30T07:45:42.564Z,40.93
2022-11-30T07:48:10.051Z,41.77
2022-11-30T07:50:36.820Z,39.83
2022-11-30T07:53:03.506Z,42.17
2022-11-30T07:55:31.164Z,41.13
2022-11-30T07:57:57.965Z,38.23
2022-11-30T08:00:24.775Z,34.67
2022-11-30T08:02:54.711Z,33.23
2022-11-30T08:06:21.399Z,31.47
2022-11-30T08:08:58.237Z,34.37
2022-11-30T08:11:33.451Z,30.83
2022-11-30T08:14:05.280Z,34.77
2022-11-30T08:16:46.176Z,29.00
2022-11-30T08:19:20.861Z,29.03
2022-11-30T08:21:58.923Z,27.23
2022-11-30T08:24:25.939Z,26.63
2022-11-30T08:26:57.130Z,27.37
2022-11-30T08:29:29.446Z,22.40
2022-11-30T08:32:06.139Z,20.03
2022-11-30T08:34:48.145Z,23.67
2022-11-30T08:37:18.586Z,25.47
2022-11-30T08:42:39.658Z,21.80
2022-11-30T08:52:36.754Z,22.77
2022-11-30T08:55:03.593Z,21.57
2022-11-30T08:57:31.264Z,23.87
2022-11-30T08:59:57.762Z,26.13
2022-11-30T09:02:24.269Z,24.27
2022-11-30T09:04:51.723Z,25.50
2022-11-30T09:07:18.373Z,22.97
2022-11-30T09:09:44.980Z,21.70
2022-11-30T09:12:11.460Z,23.57
2022-11-30T09:14:37.942Z,26.30
2022-11-30T09:17:04.966Z,26.17
2022-11-30T09:19:31.615Z,29.13
2022-11-30T09:21:58.072Z,25.37
2022-11-30T09:24:24.611Z,29.57
2022-11-30T09:26:51.083Z,24.87
2022-11-30T09:29:17.636Z,27.57
2022-11-30T09:31:44.201Z,26.00
2022-11-30T09:34:12.100Z,24.67
2022-11-30T09:36:38.700Z,22.97
2022-11-30T09:39:06.432Z,24.00
2022-11-30T09:41:58.565Z,23.97
2022-11-30T09:44:30.245Z,23.83
2022-11-30T09:47:08.476Z,22.90
2022-11-30T09:49:41.231Z,22.33
2022-11-30T09:52:15.902Z,22.27
2022-11-30T09:54:44.939Z,21.47
2022-11-30T09:57:23.718Z,18.93
2022-11-30T09:59:56.684Z,22.87
2022-11-30T10:02:38.420Z,19.90
2022-11-30T10:05:17.141Z,19.27
2022-11-30T10:08:05.280Z,18.40
2022-11-30T10:10:46.857Z,17.03
2022-11-30T10:13:42.089Z,13.27
2022-11-30T10:16:11.635Z,15.23
2022-11-30T10:18:48.331Z,14.83
2022-11-30T10:21:51.822Z,12.60
2022-11-30T10:24:35.774Z,15.60
2022-11-30T10:27:17.463Z,14.70
2022-11-30T10:29:44.267Z,12.70
2022-11-30T10:32:20.223Z,15.10
2022-11-30T10:34:58.409Z,14.17
2022-11-30T10:37:38.581Z,14.03
2022-11-30T10:40:10.969Z,16.03
2022-11-30T10:43:18.217Z,16.70
2022-11-30T10:45:50.635Z,15.67
2022-11-30T10:48:39.662Z,17.30
2022-11-30T10:51:09.827Z,17.43
2022-11-30T10:53:37.964Z,17.90
2022-11-30T10:56:16.756Z,17.87
2022-11-30T10:58:53.265Z,16.37
2022-11-30T11:01:37.834Z,17.67
2022-11-30T11:04:25.411Z,18.63
2022-11-30T11:06:55.497Z,18.37
2022-11-30T11:09:37.514Z,19.47
2022-11-30T11:12:15.738Z,18.00
2022-11-30T11:14:42.414Z,17.93
2022-11-30T11:17:17.960Z,19.00
2022-11-30T11:19:46.543Z,16.63
2022-11-30T11:22:17.734Z,16.07
2022-11-30T11:24:45.144Z,16.63
2022-11-30T11:27:20.842Z,17.73
2022-11-30T11:30:05.915Z,20.17
2022-11-30T11:32:32.689Z,16.77
2022-11-30T11:34:59.471Z,17.93
2022-11-30T11:38:28.554Z,17.40
2022-11-30T11:40:59.588Z,16.13
2022-11-30T11:43:29.852Z,14.00
2022-11-30T11:46:09.913Z,16.70
2022-11-30T11:48:40.293Z,18.17
2022-11-30T11:51:09.705Z,18.67
2022-11-30T11:53:53.842Z,22.90
2022-11-30T11:56:25.913Z,18.63
2022-11-30T11:58:59.699Z,17.90
2022-11-30T12:01:54.151Z,20.93
2022-11-30T12:04:49.628Z,17.20
2022-11-30T12:07:38.500Z,18.53
2022-11-30T12:10:22.108Z,19.77
2022-11-30T12:12:55.330Z,17.90
2022-11-30T12:15:46.780Z,17.63
2022-11-30T12:18:36.687Z,18.97
2022-11-30T12:21:25.055Z,20.93
2022-11-30T12:24:24.073Z,18.43
2022-11-30T12:26:59.360Z,16.10
2022-11-30T12:29:59.684Z,16.87
2022-11-30T12:32:46.228Z,16.60
2022-11-30T12:35:32.965Z,16.97
2022-11-30T12:38:17.967Z,16.27
2022-11-30T12:40:47.380Z,16.60
2022-11-30T12:43:39.218Z,16.10
2022-11-30T12:46:47.923Z,16.47
2022-11-30T12:49:35.849Z,20.87
2022-11-30T12:52:05.304Z,17.30
2022-11-30T12:54:59.011Z,17.00
2022-11-30T12:57:38.522Z,19.10
2022-11-30T13:00:22.226Z,17.77
2022-11-30T13:03:06.026Z,15.73
2022-11-30T13:05:53.913Z,16.20
2022-11-30T13:08:27.119Z,15.03
2022-11-30T13:11:06.249Z,14.80
2022-11-30T13:13:35.513Z,14.53
2022-11-30T13:16:05.788Z,12.23
2022-11-30T13:18:34.735Z,11.53
2022-11-30T13:21:08.369Z,14.73
2022-11-30T13:23:44.611Z,11.73
2022-11-30T13:26:32.588Z,14.70
2022-11-30T13:29:47.609Z,14.87
2022-11-30T13:32:55.460Z,14.93
2022-11-30T13:35:30.324Z,14.90
2022-11-30T13:38:35.039Z,15.47
2022-11-30T13:41:09.527Z,14.20
2022-11-30T13:43:47.808Z,16.30
2022-11-30T13:46:20.721Z,18.70
2022-11-30T13:48:48.266Z,18.77
2022-11-30T13:51:34.065Z,21.47
2022-11-30T13:54:38.564Z,20.90
2022-11-30T13:57:18.144Z,20.40
2022-11-30T13:59:46.669Z,19.07
2022-11-30T14:02:31.860Z,18.07
2022-11-30T14:05:16.590Z,17.73
2022-11-30T14:07:52.531Z,16.10
2022-11-30T14:10:35.361Z,18.80
2022-11-30T14:13:02.589Z,17.97
2022-11-30T14:15:49.002Z,18.57
2022-11-30T14:18:26.711Z,18.87
2022-11-30T14:21:14.939Z,20.37
2022-11-30T14:23:53.200Z,18.60
2022-11-30T14:26:25.295Z,18.23
2022-11-30T14:29:10.052Z,24.10
2022-11-30T14:31:52.780Z,33.50
2022-11-30T14:34:38.703Z,33.43
2022-11-30T14:37:23.705Z,26.83
2022-11-30T14:39:53.626Z,117.50
2022-11-30T14:42:25.868Z,76.17
2022-11-30T14:44:53.248Z,41.33
2022-11-30T14:47:24.475Z,82.30
2022-11-30T14:49:53.096Z,102.93
2022-11-30T14:52:49.496Z,83.50
2022-11-30T14:55:43.853Z,35.50
2022-11-30T14:58:18.028Z,25.37
2022-11-30T15:00:45.491Z,34.27
2022-11-30T15:03:28.741Z,27.67
2022-11-30T15:06:02.162Z,27.37
2022-11-30T15:08:49.922Z,28.37
2022-11-30T15:11:17.594Z,28.30
2022-11-30T15:13:47.679Z,29.83
2022-11-30T15:16:21.712Z,29.87
2022-11-30T15:18:49.485Z,26.90
2022-11-30T15:21:24.808Z,29.40
2022-11-30T15:23:56.285Z,27.43
2022-11-30T15:26:32.551Z,26.37
2022-11-30T15:29:07.421Z,29.10
2022-11-30T15:31:37.832Z,29.57
2022-11-30T15:34:06.170Z,32.20
2022-11-30T15:36:38.212Z,28.80
2022-11-30T15:39:07.454Z,29.60
2022-11-30T15:41:35.574Z,29.73
2022-11-30T15:44:02.453Z,35.03
2022-11-30T15:46:42.732Z,35.00
2022-11-30T15:49:12.681Z,117.30
2022-11-30T15:51:41.803Z,261.87
2022-11-30T15:54:08.258Z,109.87
2022-11-30T15:56:35.036Z,179.60
2022-11-30T15:59:22.964Z,143.80
2022-11-30T16:02:16.433Z,96.70
2022-11-30T16:04:58.016Z,58.77
2022-11-30T16:07:27.422Z,42.53
2022-11-30T16:10:13.730Z,26.93
2022-11-30T16:12:45.874Z,35.23
2022-11-30T16:15:24.038Z,43.27
2022-11-30T16:17:52.113Z,27.17
2022-11-30T16:20:20.794Z,29.40
2022-11-30T16:22:48.800Z,34.57
2022-11-30T16:25:21.937Z,37.23
2022-11-30T16:27:48.907Z,30.60
2022-11-30T16:30:21.485Z,37.03
2022-11-30T16:32:48.087Z,31.47
2022-11-30T16:35:30.107Z,28.73
2022-11-30T16:37:56.641Z,24.87
2022-11-30T16:40:23.182Z,21.07
2022-11-30T16:42:51.085Z,19.77
2022-11-30T16:45:21.508Z,20.97
2022-11-30T16:47:48.534Z,18.53
2022-11-30T16:50:15.272Z,23.07
2022-11-30T16:52:42.319Z,20.00
2022-11-30T16:55:14.186Z,17.77
2022-11-30T16:57:40.675Z,20.20
2022-11-30T17:00:09.046Z,21.20
2022-11-30T17:02:39.754Z,22.40
2022-11-30T17:05:07.408Z,19.90
2022-11-30T17:07:36.310Z,19.70
2022-11-30T17:10:05.009Z,22.47
2022-11-30T17:12:31.761Z,19.90
2022-11-30T17:14:58.300Z,18.03
2022-11-30T17:17:24.797Z,17.37
2022-11-30T17:19:51.271Z,18.87
2022-11-30T17:22:17.759Z,19.17
2022-11-30T17:24:44.219Z,16.50
2022-11-30T17:27:11.950Z,21.53
2022-11-30T17:29:39.849Z,17.23
2022-11-30T17:32:06.440Z,19.50
2022-11-30T17:34:32.951Z,21.23
2022-11-30T17:36:59.490Z,22.50
2022-11-30T17:39:26.149Z,21.57
2022-11-30T17:41:52.681Z,19.07
2022-11-30T17:44:19.220Z,26.50
2022-11-30T17:46:48.845Z,23.27
2022-11-30T17:49:18.055Z,23.53
2022-11-30T17:51:44.595Z,23.67
2022-11-30T17:54:11.383Z,23.50
2022-11-30T17:56:38.177Z,23.10
2022-11-30T17:59:04.933Z,26.90
2022-11-30T18:01:31.474Z,26.40
2022-11-30T18:03:58.896Z,26.40
2022-11-30T18:06:25.403Z,25.43
2022-11-30T18:08:52.505Z,25.60
2022-11-30T18:11:21.145Z,19.97
2022-11-30T18:13:50.026Z,20.33
2022-11-30T18:16:19.709Z,18.00
2022-11-30T18:18:48.420Z,16.40
2022-11-30T18:21:17.555Z,15.37
2022-11-30T18:23:44.285Z,13.37
2022-11-30T18:26:13.870Z,12.13
2022-11-30T18:28:40.693Z,13.47
2022-11-30T18:31:07.478Z,13.17
2022-11-30T18:33:35.722Z,13.53
2022-11-30T18:36:03.427Z,13.87
2022-11-30T18:38:37.075Z,14.33
2022-11-30T18:41:05.217Z,15.47
2022-11-30T18:43:33.404Z,14.63
2022-11-30T18:46:04.966Z,17.13
2022-11-30T18:48:31.756Z,15.30
2022-11-30T18:50:58.292Z,17.20
2022-11-30T18:53:24.910Z,17.90
2022-11-30T18:55:51.441Z,17.10
2022-11-30T18:58:17.930Z,23.10
2022-11-30T19:00:44.440Z,21.53
2022-11-30T19:03:10.898Z,22.40
2022-11-30T19:05:39.684Z,22.80
2022-11-30T19:08:09.165Z,23.80
2022-11-30T19:10:37.923Z,21.40
2022-11-30T19:13:05.551Z,24.07
2022-11-30T19:15:39.395Z,21.87
2022-11-30T19:18:06.390Z,18.93
2022-11-30T19:20:40.789Z,17.90
2022-11-30T19:23:07.343Z,19.13
2022-11-30T19:25:33.954Z,18.97
2022-11-30T19:28:00.528Z,20.57
2022-11-30T19:30:27.147Z,21.57
2022-11-30T19:32:53.747Z,19.87
2022-11-30T19:35:22.940Z,21.03
2022-11-30T19:37:51.773Z,20.17
2022-11-30T19:40:18.521Z,18.30
2022-11-30T19:42:44.985Z,19.23
2022-11-30T19:45:11.475Z,19.23
2022-11-30T19:47:37.943Z,16.47
2022-11-30T19:50:04.985Z,16.00
2022-11-30T19:52:31.427Z,15.80
2022-11-30T19:54:58.152Z,17.03
2022-11-30T19:57:24.624Z,13.83
2022-11-30T19:59:51.128Z,13.00
2022-11-30T20:02:17.628Z,9.97
2022-11-30T20:04:44.144Z,9.90
2022-11-30T20:07:10.621Z,8.67
2022-11-30T20:09:37.238Z,8.57
2022-11-30T20:12:03.871Z,9.83
2022-11-30T20:14:30.393Z,9.87
2022-11-30T20:16:56.923Z,9.30
2022-11-30T20:19:23.860Z,8.60
2022-11-30T20:21:51.125Z,8.10
2022-11-30T20:24:17.634Z,8.63
2022-11-30T20:26:44.386Z,8.93
2022-11-30T20:29:14.298Z,9.13
2022-11-30T20:31:41.897Z,10.10
2022-11-30T20:34:10.313Z,9.07
2022-11-30T20:36:37.416Z,8.73
2022-11-30T20:39:04.684Z,10.90
2022-11-30T20:41:31.431Z,9.00
2022-11-30T20:43:58.043Z,11.73
2022-11-30T20:46:27.172Z,12.33
2022-11-30T20:48:54.677Z,13.37
2022-11-30T20:51:33.060Z,13.10
2022-11-30T20:54:11.263Z,16.00
2022-11-30T20:56:38.380Z,17.13
2022-11-30T20:59:08.758Z,14.10
2022-11-30T21:01:35.764Z,17.03
2022-11-30T21:04:02.301Z,17.67
2022-11-30T21:06:31.914Z,19.73
2022-11-30T21:08:59.393Z,17.70
2022-11-30T21:11:27.517Z,19.97
2022-11-30T21:13:54.248Z,17.00
2022-11-30T21:16:27.631Z,22.23
2022-11-30T21:18:56.165Z,21.63
2022-11-30T21:21:25.929Z,22.67
2022-11-30T21:23:52.764Z,20.43
2022-11-30T21:26:23.721Z,19.50
2022-11-30T21:28:55.625Z,20.33
2022-11-30T21:31:23.486Z,23.50
2022-11-30T21:33:53.469Z,21.03
2022-11-30T21:36:22.015Z,24.23
2022-11-30T21:38:53.591Z,22.60
2022-11-30T21:41:20.110Z,27.27
2022-11-30T21:43:46.580Z,27.20
2022-11-30T21:46:15.800Z,25.57
2022-11-30T21:48:44.307Z,28.43
2022-11-30T21:51:16.597Z,29.50
2022-11-30T21:53:45.740Z,34.13
2022-11-30T21:56:14.932Z,33.50
2022-11-30T21:58:43.444Z,32.40
2022-11-30T22:01:21.892Z,34.40
2022-11-30T22:03:48.399Z,35.40
2022-11-30T22:06:17.165Z,34.90
2022-11-30T22:08:44.192Z,31.87
2022-11-30T22:11:16.311Z,31.33
2022-11-30T22:13:43.708Z,33.07
2022-11-30T22:16:15.818Z,29.07
2022-11-30T22:18:43.594Z,27.23
2022-11-30T22:21:21.758Z,27.80
2022-11-30T22:23:53.626Z,24.33
2022-11-30T22:26:22.998Z,30.10
2022-11-30T22:28:57.694Z,27.27
2022-11-30T22:31:26.971Z,28.17
2022-11-30T22:33:53.693Z,28.00
2022-11-30T22:36:22.452Z,28.77
2022-11-30T22:38:57.484Z,27.53
2022-11-30T22:41:25.008Z,29.40
2022-11-30T22:43:51.800Z,28.80
2022-11-30T22:46:21.056Z,29.03
2022-11-30T22:48:47.866Z,29.57
2022-11-30T22:51:23.250Z,29.40
2022-11-30T22:53:50.943Z,29.50
2022-11-30T22:56:28.991Z,27.70
2022-11-30T22:58:59.858Z,28.53
2022-11-30T23:01:32.505Z,30.33
2022-11-30T23:04:05.115Z,29.40
2022-11-30T23:06:32.584Z,29.67
2022-11-30T23:08:59.449Z,28.67
2022-11-30T23:11:27.192Z,29.30
2022-11-30T23:13:53.792Z,28.30
2022-11-30T23:16:20.739Z,29.10
2022-11-30T23:18:54.471Z,31.77
2022-11-30T23:21:25.599Z,30.63
2022-11-30T23:23:52.862Z,32.77
2022-11-30T23:26:22.354Z,31.23
2022-11-30T23:28:50.818Z,31.40
2022-11-30T23:31:33.503Z,32.33
2022-11-30T23:34:04.835Z,34.33
2022-11-30T23:36:32.287Z,33.53
2022-11-30T23:39:02.018Z,33.27
2022-11-30T23:41:28.893Z,28.03
2022-11-30T23:43:55.598Z,34.77
2022-11-30T23:46:22.159Z,33.93
2022-11-30T23:48:49.070Z,34.93
2022-11-30T23:51:15.833Z,31.67
2022-11-30T23:53:42.371Z,32.53
2022-11-30T23:56:13.227Z,32.47
2022-11-30T23:58:39.767Z,30.13
